sensor_id;sensor_type;location;lat;lon;timestamp;temperature;humidity
1578;DHT22;57623;53.608;10.004;2022-08-11T00:01:50;18.70;99.90
1578;DHT22;57623;53.608;10.004;2022-08-11T00:04:54;18.70;99.90
1578;DHT22;57623;53.608;10.004;2022-08-11T00:07:48;18.60;99.90
1578;DHT22;57623;53.608;10.004;2022-08-11T00:10:51;18.60;99.90
1578;DHT22;57623;53.608;10.004;2022-08-11T00:13:52;18.60;99.90
1578;DHT22;57623;53.608;10.004;2022-08-11T00:16:41;18.50;99.90
1578;DHT22;57623;53.608;10.004;2022-08-11T00:19:34;18.50;99.90
1578;DHT22;57623;53.608;10.004;2022-08-11T00:23:05;18.50;99.90
1578;DHT22;57623;53.608;10.004;2022-08-11T00:26:11;18.40;99.90
1578;DHT22;57623;53.608;10.004;2022-08-11T00:29:16;18.30;99.90
1578;DHT22;57623;53.608;10.004;2022-08-11T00:32:55;18.30;99.90
1578;DHT22;57623;53.608;10.004;2022-08-11T00:35:56;18.30;99.90
1578;DHT22;57623;53.608;10.004;2022-08-11T00:38:48;18.20;99.90
1578;DHT22;57623;53.608;10.004;2022-08-11T00:42:08;18.20;99.90
1578;DHT22;57623;53.608;10.004;2022-08-11T00:45:13;18.20;99.90
1578;DHT22;57623;53.608;10.004;2022-08-11T00:48:27;18.10;99.90
1578;DHT22;57623;53.608;10.004;2022-08-11T00:51:46;18.10;99.90
1578;DHT22;57623;53.608;10.004;2022-08-11T00:55:25;18.00;99.90
1578;DHT22;57623;53.608;10.004;2022-08-11T01:02:40;17.90;99.90
1578;DHT22;57623;53.608;10.004;2022-08-11T01:06:00;17.90;99.90
1578;DHT22;57623;53.608;10.004;2022-08-11T01:12:42;17.80;99.90
1578;DHT22;57623;53.608;10.004;2022-08-11T01:16:05;17.70;99.90
1578;DHT22;57623;53.608;10.004;2022-08-11T01:27:14;17.60;99.90
1578;DHT22;57623;53.608;10.004;2022-08-11T01:41:41;17.40;99.90
1578;DHT22;57623;53.608;10.004;2022-08-11T01:48:33;17.40;99.90
1578;DHT22;57623;53.608;10.004;2022-08-11T01:52:02;17.30;99.90
1578;DHT22;57623;53.608;10.004;2022-08-11T01:55:27;17.30;99.90
1578;DHT22;57623;53.608;10.004;2022-08-11T01:58:46;17.30;99.90
1578;DHT22;57623;53.608;10.004;2022-08-11T02:01:45;17.20;99.90
1578;DHT22;57623;53.608;10.004;2022-08-11T02:04:54;17.20;99.90
1578;DHT22;57623;53.608;10.004;2022-08-11T02:07:52;17.10;99.90
1578;DHT22;57623;53.608;10.004;2022-08-11T02:14:28;17.10;99.90
1578;DHT22;57623;53.608;10.004;2022-08-11T02:17:32;17.10;99.90
1578;DHT22;57623;53.608;10.004;2022-08-11T02:20:29;17.00;99.90
1578;DHT22;57623;53.608;10.004;2022-08-11T02:23:55;17.00;99.90
1578;DHT22;57623;53.608;10.004;2022-08-11T02:27:00;16.90;99.90
1578;DHT22;57623;53.608;10.004;2022-08-11T02:30:02;16.90;99.90
1578;DHT22;57623;53.608;10.004;2022-08-11T02:33:19;16.90;99.90
1578;DHT22;57623;53.608;10.004;2022-08-11T02:36:48;16.80;99.90
1578;DHT22;57623;53.608;10.004;2022-08-11T02:40:05;16.80;99.90
1578;DHT22;57623;53.608;10.004;2022-08-11T02:43:29;16.80;99.90
1578;DHT22;57623;53.608;10.004;2022-08-11T02:46:35;16.70;99.90
1578;DHT22;57623;53.608;10.004;2022-08-11T02:50:16;16.70;99.90
1578;DHT22;57623;53.608;10.004;2022-08-11T02:54:04;16.70;99.90
1578;DHT22;57623;53.608;10.004;2022-08-11T02:57:04;16.70;99.90
1578;DHT22;57623;53.608;10.004;2022-08-11T03:00:05;16.60;99.90
1578;DHT22;57623;53.608;10.004;2022-08-11T03:06:48;16.50;99.90
1578;DHT22;57623;53.608;10.004;2022-08-11T03:09:57;16.50;99.90
1578;DHT22;57623;53.608;10.004;2022-08-11T03:13:16;16.50;99.90
1578;DHT22;57623;53.608;10.004;2022-08-11T03:16:31;16.40;99.90
1578;DHT22;57623;53.608;10.004;2022-08-11T03:23:52;16.30;99.90
1578;DHT22;57623;53.608;10.004;2022-08-11T03:26:51;16.30;99.90
1578;DHT22;57623;53.608;10.004;2022-08-11T03:30:01;16.30;99.90
1578;DHT22;57623;53.608;10.004;2022-08-11T03:33:20;16.30;99.90
1578;DHT22;57623;53.608;10.004;2022-08-11T03:40:19;16.20;99.90
1578;DHT22;57623;53.608;10.004;2022-08-11T03:43:50;16.20;99.90
1578;DHT22;57623;53.608;10.004;2022-08-11T03:50:12;16.10;99.90
1578;DHT22;57623;53.608;10.004;2022-08-11T03:53:16;16.10;99.90
1578;DHT22;57623;53.608;10.004;2022-08-11T04:00:10;16.10;99.90
1578;DHT22;57623;53.608;10.004;2022-08-11T04:03:36;16.10;99.90
1578;DHT22;57623;53.608;10.004;2022-08-11T04:06:59;16.00;99.90
1578;DHT22;57623;53.608;10.004;2022-08-11T04:10:39;16.10;99.90
1578;DHT22;57623;53.608;10.004;2022-08-11T04:21:45;15.90;99.90
1578;DHT22;57623;53.608;10.004;2022-08-11T04:24:57;15.90;99.90
1578;DHT22;57623;53.608;10.004;2022-08-11T04:28:02;15.90;99.90
1578;DHT22;57623;53.608;10.004;2022-08-11T04:31:10;15.90;99.90
1578;DHT22;57623;53.608;10.004;2022-08-11T04:34:43;15.90;99.90
1578;DHT22;57623;53.608;10.004;2022-08-11T04:38:30;16.00;99.90
1578;DHT22;57623;53.608;10.004;2022-08-11T04:45:46;15.90;99.90
1578;DHT22;57623;53.608;10.004;2022-08-11T04:49:13;15.90;99.90
1578;DHT22;57623;53.608;10.004;2022-08-11T04:56:14;15.90;99.90
1578;DHT22;57623;53.608;10.004;2022-08-11T04:59:42;16.00;99.90
1578;DHT22;57623;53.608;10.004;2022-08-11T05:06:56;16.00;99.90
1578;DHT22;57623;53.608;10.004;2022-08-11T05:10:17;16.10;99.90
1578;DHT22;57623;53.608;10.004;2022-08-11T05:13:27;16.10;99.90
1578;DHT22;57623;53.608;10.004;2022-08-11T05:20:09;16.20;99.90
1578;DHT22;57623;53.608;10.004;2022-08-11T05:23:17;16.20;99.90
1578;DHT22;57623;53.608;10.004;2022-08-11T05:26:29;16.20;99.90
1578;DHT22;57623;53.608;10.004;2022-08-11T05:29:52;16.30;99.90
1578;DHT22;57623;53.608;10.004;2022-08-11T05:33:09;16.30;99.90
1578;DHT22;57623;53.608;10.004;2022-08-11T05:36:32;16.40;99.90
1578;DHT22;57623;53.608;10.004;2022-08-11T05:39:40;16.40;99.90
1578;DHT22;57623;53.608;10.004;2022-08-11T05:43:01;16.50;99.90
1578;DHT22;57623;53.608;10.004;2022-08-11T05:46:09;16.60;99.90
1578;DHT22;57623;53.608;10.004;2022-08-11T05:49:17;16.60;99.90
1578;DHT22;57623;53.608;10.004;2022-08-11T05:52:29;16.70;99.90
1578;DHT22;57623;53.608;10.004;2022-08-11T05:55:47;16.80;99.90
1578;DHT22;57623;53.608;10.004;2022-08-11T05:58:56;16.90;99.90
1578;DHT22;57623;53.608;10.004;2022-08-11T06:01:49;17.00;99.90
1578;DHT22;57623;53.608;10.004;2022-08-11T06:04:41;17.10;99.90
1578;DHT22;57623;53.608;10.004;2022-08-11T06:07:32;17.20;99.90
1578;DHT22;57623;53.608;10.004;2022-08-11T06:10:38;17.30;99.90
1578;DHT22;57623;53.608;10.004;2022-08-11T06:13:28;17.40;99.90
1578;DHT22;57623;53.608;10.004;2022-08-11T06:16:21;17.50;99.90
1578;DHT22;57623;53.608;10.004;2022-08-11T06:19:12;17.60;99.90
1578;DHT22;57623;53.608;10.004;2022-08-11T06:22:05;17.70;99.90
1578;DHT22;57623;53.608;10.004;2022-08-11T06:24:56;17.80;99.90
1578;DHT22;57623;53.608;10.004;2022-08-11T06:27:45;17.80;99.90
1578;DHT22;57623;53.608;10.004;2022-08-11T06:30:38;18.00;99.90
1578;DHT22;57623;53.608;10.004;2022-08-11T06:33:34;18.10;99.90
1578;DHT22;57623;53.608;10.004;2022-08-11T06:36:37;18.20;99.90
1578;DHT22;57623;53.608;10.004;2022-08-11T06:39:31;18.20;99.90
1578;DHT22;57623;53.608;10.004;2022-08-11T06:42:33;18.30;99.90
1578;DHT22;57623;53.608;10.004;2022-08-11T06:45:28;18.40;99.90
1578;DHT22;57623;53.608;10.004;2022-08-11T06:48:20;18.50;99.90
1578;DHT22;57623;53.608;10.004;2022-08-11T06:51:09;18.60;99.90
1578;DHT22;57623;53.608;10.004;2022-08-11T06:54:02;18.60;99.90
1578;DHT22;57623;53.608;10.004;2022-08-11T06:56:55;18.70;99.90
1578;DHT22;57623;53.608;10.004;2022-08-11T07:00:17;18.80;99.90
1578;DHT22;57623;53.608;10.004;2022-08-11T07:03:16;18.90;99.90
1578;DHT22;57623;53.608;10.004;2022-08-11T07:06:20;19.00;99.90
1578;DHT22;57623;53.608;10.004;2022-08-11T07:09:32;19.10;99.90
1578;DHT22;57623;53.608;10.004;2022-08-11T07:12:49;19.20;99.90
1578;DHT22;57623;53.608;10.004;2022-08-11T07:16:25;19.30;99.90
1578;DHT22;57623;53.608;10.004;2022-08-11T07:19:18;19.40;99.90
1578;DHT22;57623;53.608;10.004;2022-08-11T07:22:30;19.50;99.90
1578;DHT22;57623;53.608;10.004;2022-08-11T07:25:41;19.60;99.90
1578;DHT22;57623;53.608;10.004;2022-08-11T07:28:49;19.70;99.90
1578;DHT22;57623;53.608;10.004;2022-08-11T07:31:49;19.80;99.90
1578;DHT22;57623;53.608;10.004;2022-08-11T07:34:46;19.90;99.90
1578;DHT22;57623;53.608;10.004;2022-08-11T07:37:41;20.00;99.90
1578;DHT22;57623;53.608;10.004;2022-08-11T07:40:31;20.00;99.90
1578;DHT22;57623;53.608;10.004;2022-08-11T07:43:22;20.10;99.90
1578;DHT22;57623;53.608;10.004;2022-08-11T07:46:11;20.20;99.90
1578;DHT22;57623;53.608;10.004;2022-08-11T07:49:17;20.30;99.90
1578;DHT22;57623;53.608;10.004;2022-08-11T07:52:27;20.40;99.90
1578;DHT22;57623;53.608;10.004;2022-08-11T07:55:20;20.60;99.90
1578;DHT22;57623;53.608;10.004;2022-08-11T07:58:35;20.70;99.90
1578;DHT22;57623;53.608;10.004;2022-08-11T08:01:49;20.80;99.90
1578;DHT22;57623;53.608;10.004;2022-08-11T08:04:57;20.90;99.90
1578;DHT22;57623;53.608;10.004;2022-08-11T08:08:04;21.00;99.90
1578;DHT22;57623;53.608;10.004;2022-08-11T08:11:11;21.10;99.90
1578;DHT22;57623;53.608;10.004;2022-08-11T08:14:20;21.20;99.90
1578;DHT22;57623;53.608;10.004;2022-08-11T08:17:28;21.30;99.90
1578;DHT22;57623;53.608;10.004;2022-08-11T08:20:56;21.40;99.90
1578;DHT22;57623;53.608;10.004;2022-08-11T08:23:58;21.60;99.90
1578;DHT22;57623;53.608;10.004;2022-08-11T08:26:48;21.70;99.90
1578;DHT22;57623;53.608;10.004;2022-08-11T08:29:48;21.80;99.90
1578;DHT22;57623;53.608;10.004;2022-08-11T08:32:55;21.90;99.90
1578;DHT22;57623;53.608;10.004;2022-08-11T08:35:44;22.00;99.90
1578;DHT22;57623;53.608;10.004;2022-08-11T08:38:46;22.20;99.90
1578;DHT22;57623;53.608;10.004;2022-08-11T08:41:35;22.30;99.90
1578;DHT22;57623;53.608;10.004;2022-08-11T08:44:26;22.40;99.90
1578;DHT22;57623;53.608;10.004;2022-08-11T08:47:28;22.60;99.90
1578;DHT22;57623;53.608;10.004;2022-08-11T08:50:32;22.60;99.90
1578;DHT22;57623;53.608;10.004;2022-08-11T08:53:42;22.80;99.90
1578;DHT22;57623;53.608;10.004;2022-08-11T08:56:42;22.90;99.90
1578;DHT22;57623;53.608;10.004;2022-08-11T08:59:32;23.00;99.90
1578;DHT22;57623;53.608;10.004;2022-08-11T09:02:36;23.20;99.90
1578;DHT22;57623;53.608;10.004;2022-08-11T09:05:25;23.30;99.90
1578;DHT22;57623;53.608;10.004;2022-08-11T09:08:15;23.40;99.90
1578;DHT22;57623;53.608;10.004;2022-08-11T09:11:04;23.50;99.90
1578;DHT22;57623;53.608;10.004;2022-08-11T09:14:10;23.60;99.90
1578;DHT22;57623;53.608;10.004;2022-08-11T09:17:01;23.70;99.90
1578;DHT22;57623;53.608;10.004;2022-08-11T09:19:54;23.80;99.90
1578;DHT22;57623;53.608;10.004;2022-08-11T09:22:48;24.00;99.90
1578;DHT22;57623;53.608;10.004;2022-08-11T09:26:15;24.00;99.90
1578;DHT22;57623;53.608;10.004;2022-08-11T09:29:21;24.00;99.90
1578;DHT22;57623;53.608;10.004;2022-08-11T09:32:11;24.10;99.90
1578;DHT22;57623;53.608;10.004;2022-08-11T09:35:02;24.20;99.90
1578;DHT22;57623;53.608;10.004;2022-08-11T09:37:51;24.30;99.90
1578;DHT22;57623;53.608;10.004;2022-08-11T09:41:00;24.30;99.90
1578;DHT22;57623;53.608;10.004;2022-08-11T09:43:57;24.40;99.90
1578;DHT22;57623;53.608;10.004;2022-08-11T09:47:05;24.50;99.90
1578;DHT22;57623;53.608;10.004;2022-08-11T09:50:01;24.60;99.90
1578;DHT22;57623;53.608;10.004;2022-08-11T09:52:50;24.60;99.90
1578;DHT22;57623;53.608;10.004;2022-08-11T09:55:59;24.70;99.90
1578;DHT22;57623;53.608;10.004;2022-08-11T09:59:09;24.80;99.90
1578;DHT22;57623;53.608;10.004;2022-08-11T10:01:59;24.90;99.90
1578;DHT22;57623;53.608;10.004;2022-08-11T10:04:51;25.00;99.90
1578;DHT22;57623;53.608;10.004;2022-08-11T10:08:10;25.10;99.90
1578;DHT22;57623;53.608;10.004;2022-08-11T10:10:59;25.20;99.90
1578;DHT22;57623;53.608;10.004;2022-08-11T10:13:51;25.30;99.90
1578;DHT22;57623;53.608;10.004;2022-08-11T10:17:19;25.30;99.90
1578;DHT22;57623;53.608;10.004;2022-08-11T10:20:10;25.40;99.90
1578;DHT22;57623;53.608;10.004;2022-08-11T10:23:00;25.50;99.90
1578;DHT22;57623;53.608;10.004;2022-08-11T10:26:08;25.60;99.90
1578;DHT22;57623;53.608;10.004;2022-08-11T10:29:18;25.60;99.90
1578;DHT22;57623;53.608;10.004;2022-08-11T10:32:37;25.70;99.90
1578;DHT22;57623;53.608;10.004;2022-08-11T10:35:46;25.70;99.90
1578;DHT22;57623;53.608;10.004;2022-08-11T10:38:37;25.80;99.90
1578;DHT22;57623;53.608;10.004;2022-08-11T10:41:29;25.90;99.90
1578;DHT22;57623;53.608;10.004;2022-08-11T10:44:56;26.00;99.90
1578;DHT22;57623;53.608;10.004;2022-08-11T10:47:47;26.00;99.90
1578;DHT22;57623;53.608;10.004;2022-08-11T10:50:36;26.00;99.90
1578;DHT22;57623;53.608;10.004;2022-08-11T10:53:44;26.10;99.90
1578;DHT22;57623;53.608;10.004;2022-08-11T10:56:53;26.20;99.90
1578;DHT22;57623;53.608;10.004;2022-08-11T10:59:59;26.30;99.90
1578;DHT22;57623;53.608;10.004;2022-08-11T11:02:48;26.30;99.90
1578;DHT22;57623;53.608;10.004;2022-08-11T11:06:05;26.50;99.90
1578;DHT22;57623;53.608;10.004;2022-08-11T11:09:18;26.60;99.90
1578;DHT22;57623;53.608;10.004;2022-08-11T11:12:12;26.70;99.90
1578;DHT22;57623;53.608;10.004;2022-08-11T11:15:20;26.70;99.90
1578;DHT22;57623;53.608;10.004;2022-08-11T11:18:27;26.80;99.90
1578;DHT22;57623;53.608;10.004;2022-08-11T11:21:19;26.90;99.90
1578;DHT22;57623;53.608;10.004;2022-08-11T11:24:15;27.00;99.90
1578;DHT22;57623;53.608;10.004;2022-08-11T11:27:17;27.10;99.90
1578;DHT22;57623;53.608;10.004;2022-08-11T11:30:09;27.20;99.90
1578;DHT22;57623;53.608;10.004;2022-08-11T11:33:05;27.30;99.90
1578;DHT22;57623;53.608;10.004;2022-08-11T11:36:07;27.40;99.90
1578;DHT22;57623;53.608;10.004;2022-08-11T11:38:59;27.40;99.90
1578;DHT22;57623;53.608;10.004;2022-08-11T11:41:49;27.50;99.90
1578;DHT22;57623;53.608;10.004;2022-08-11T11:44:43;27.60;99.90
1578;DHT22;57623;53.608;10.004;2022-08-11T11:47:32;27.70;99.90
1578;DHT22;57623;53.608;10.004;2022-08-11T11:50:23;27.70;99.90
1578;DHT22;57623;53.608;10.004;2022-08-11T11:53:18;27.80;99.90
1578;DHT22;57623;53.608;10.004;2022-08-11T11:56:06;27.90;99.90
1578;DHT22;57623;53.608;10.004;2022-08-11T11:58:55;28.00;99.90
1578;DHT22;57623;53.608;10.004;2022-08-11T12:02:03;28.10;99.90
1578;DHT22;57623;53.608;10.004;2022-08-11T12:04:59;28.20;99.90
1578;DHT22;57623;53.608;10.004;2022-08-11T12:07:48;28.30;99.90
1578;DHT22;57623;53.608;10.004;2022-08-11T12:11:01;28.40;99.90
1578;DHT22;57623;53.608;10.004;2022-08-11T12:14:08;28.50;99.90
1578;DHT22;57623;53.608;10.004;2022-08-11T12:16:59;28.60;99.90
1578;DHT22;57623;53.608;10.004;2022-08-11T12:19:49;28.80;99.90
1578;DHT22;57623;53.608;10.004;2022-08-11T12:22:38;28.90;99.90
1578;DHT22;57623;53.608;10.004;2022-08-11T12:25:45;28.90;99.90
1578;DHT22;57623;53.608;10.004;2022-08-11T12:29:11;29.10;99.90
1578;DHT22;57623;53.608;10.004;2022-08-11T12:32:02;29.20;99.90
1578;DHT22;57623;53.608;10.004;2022-08-11T12:34:57;29.30;99.90
1578;DHT22;57623;53.608;10.004;2022-08-11T12:37:49;29.40;99.90
1578;DHT22;57623;53.608;10.004;2022-08-11T12:40:52;29.40;99.90
1578;DHT22;57623;53.608;10.004;2022-08-11T12:44:02;29.60;99.90
1578;DHT22;57623;53.608;10.004;2022-08-11T12:47:23;29.70;99.90
1578;DHT22;57623;53.608;10.004;2022-08-11T12:50:59;29.80;99.90
1578;DHT22;57623;53.608;10.004;2022-08-11T12:54:16;29.90;99.60
1578;DHT22;57623;53.608;10.004;2022-08-11T12:57:13;30.10;98.80
1578;DHT22;57623;53.608;10.004;2022-08-11T13:00:32;30.10;98.90
1578;DHT22;57623;53.608;10.004;2022-08-11T13:03:40;30.30;97.80
1578;DHT22;57623;53.608;10.004;2022-08-11T13:06:47;30.40;96.20
1578;DHT22;57623;53.608;10.004;2022-08-11T13:09:37;30.50;97.80
1578;DHT22;57623;53.608;10.004;2022-08-11T13:12:27;30.60;97.60
1578;DHT22;57623;53.608;10.004;2022-08-11T13:15:34;30.70;95.50
1578;DHT22;57623;53.608;10.004;2022-08-11T13:18:25;30.70;95.20
1578;DHT22;57623;53.608;10.004;2022-08-11T13:21:17;30.90;97.10
1578;DHT22;57623;53.608;10.004;2022-08-11T13:24:10;31.00;98.50
1578;DHT22;57623;53.608;10.004;2022-08-11T13:26:58;31.20;97.50
1578;DHT22;57623;53.608;10.004;2022-08-11T13:29:54;31.40;94.80
1578;DHT22;57623;53.608;10.004;2022-08-11T13:33:08;31.50;96.50
1578;DHT22;57623;53.608;10.004;2022-08-11T13:36:01;31.70;94.90
1578;DHT22;57623;53.608;10.004;2022-08-11T13:38:50;31.80;92.90
1578;DHT22;57623;53.608;10.004;2022-08-11T13:41:42;31.80;93.90
1578;DHT22;57623;53.608;10.004;2022-08-11T13:44:37;32.00;92.30
1578;DHT22;57623;53.608;10.004;2022-08-11T13:47:26;32.10;92.40
1578;DHT22;57623;53.608;10.004;2022-08-11T13:50:15;32.30;92.90
1578;DHT22;57623;53.608;10.004;2022-08-11T13:53:04;32.40;91.00
1578;DHT22;57623;53.608;10.004;2022-08-11T13:56:00;32.50;92.00
1578;DHT22;57623;53.608;10.004;2022-08-11T13:58:53;32.80;92.30
1578;DHT22;57623;53.608;10.004;2022-08-11T14:01:47;32.90;91.30
1578;DHT22;57623;53.608;10.004;2022-08-11T14:05:04;32.90;88.60
1578;DHT22;57623;53.608;10.004;2022-08-11T14:07:57;32.90;86.00
1578;DHT22;57623;53.608;10.004;2022-08-11T14:10:48;32.90;88.20
1578;DHT22;57623;53.608;10.004;2022-08-11T14:14:24;33.10;85.60
1578;DHT22;57623;53.608;10.004;2022-08-11T14:17:13;33.20;83.60
1578;DHT22;57623;53.608;10.004;2022-08-11T14:20:24;33.40;84.50
1578;DHT22;57623;53.608;10.004;2022-08-11T14:23:36;33.40;83.90
1578;DHT22;57623;53.608;10.004;2022-08-11T14:26:25;33.70;81.10
1578;DHT22;57623;53.608;10.004;2022-08-11T14:29:18;34.10;81.60
1578;DHT22;57623;53.608;10.004;2022-08-11T14:32:13;34.40;76.60
1578;DHT22;57623;53.608;10.004;2022-08-11T14:35:02;34.60;77.30
1578;DHT22;57623;53.608;10.004;2022-08-11T14:37:51;34.90;76.60
1578;DHT22;57623;53.608;10.004;2022-08-11T14:40:43;35.10;78.80
1578;DHT22;57623;53.608;10.004;2022-08-11T14:43:49;35.30;76.10
1578;DHT22;57623;53.608;10.004;2022-08-11T14:47:00;35.80;72.40
1578;DHT22;57623;53.608;10.004;2022-08-11T14:50:14;36.60;70.10
1578;DHT22;57623;53.608;10.004;2022-08-11T14:53:07;37.30;69.00
1578;DHT22;57623;53.608;10.004;2022-08-11T14:56:05;37.30;67.90
1578;DHT22;57623;53.608;10.004;2022-08-11T14:59:12;37.30;67.80
1578;DHT22;57623;53.608;10.004;2022-08-11T15:02:04;37.00;68.40
1578;DHT22;57623;53.608;10.004;2022-08-11T15:05:11;36.60;67.50
1578;DHT22;57623;53.608;10.004;2022-08-11T15:08:01;36.30;68.50
1578;DHT22;57623;53.608;10.004;2022-08-11T15:10:51;36.00;70.90
1578;DHT22;57623;53.608;10.004;2022-08-11T15:13:39;35.80;71.90
1578;DHT22;57623;53.608;10.004;2022-08-11T15:16:30;35.60;72.10
1578;DHT22;57623;53.608;10.004;2022-08-11T15:19:39;35.30;72.60
1578;DHT22;57623;53.608;10.004;2022-08-11T15:22:50;35.00;72.80
1578;DHT22;57623;53.608;10.004;2022-08-11T15:26:03;34.80;74.00
1578;DHT22;57623;53.608;10.004;2022-08-11T15:28:52;34.60;75.20
1578;DHT22;57623;53.608;10.004;2022-08-11T15:31:58;34.20;75.90
1578;DHT22;57623;53.608;10.004;2022-08-11T15:35:05;33.90;75.30
1578;DHT22;57623;53.608;10.004;2022-08-11T15:38:21;33.60;75.90
1578;DHT22;57623;53.608;10.004;2022-08-11T15:41:14;33.40;76.30
1578;DHT22;57623;53.608;10.004;2022-08-11T15:44:23;33.10;77.70
1578;DHT22;57623;53.608;10.004;2022-08-11T15:47:56;33.00;78.50
1578;DHT22;57623;53.608;10.004;2022-08-11T15:50:54;32.80;78.80
1578;DHT22;57623;53.608;10.004;2022-08-11T15:53:53;32.80;78.90
1578;DHT22;57623;53.608;10.004;2022-08-11T15:56:44;32.60;78.00
1578;DHT22;57623;53.608;10.004;2022-08-11T15:59:36;32.50;78.20
1578;DHT22;57623;53.608;10.004;2022-08-11T16:02:43;32.30;79.90
1578;DHT22;57623;53.608;10.004;2022-08-11T16:05:49;32.10;79.70
1578;DHT22;57623;53.608;10.004;2022-08-11T16:08:40;32.00;80.50
1578;DHT22;57623;53.608;10.004;2022-08-11T16:11:33;32.00;81.20
1578;DHT22;57623;53.608;10.004;2022-08-11T16:14:22;31.80;80.80
1578;DHT22;57623;53.608;10.004;2022-08-11T16:17:31;31.80;81.10
1578;DHT22;57623;53.608;10.004;2022-08-11T16:20:22;31.80;81.20
1578;DHT22;57623;53.608;10.004;2022-08-11T16:23:12;31.70;79.60
1578;DHT22;57623;53.608;10.004;2022-08-11T16:26:01;31.70;81.90
1578;DHT22;57623;53.608;10.004;2022-08-11T16:29:12;31.70;82.50
1578;DHT22;57623;53.608;10.004;2022-08-11T16:32:02;31.60;81.90
1578;DHT22;57623;53.608;10.004;2022-08-11T16:35:10;31.50;80.80
1578;DHT22;57623;53.608;10.004;2022-08-11T16:38:18;31.50;80.40
1578;DHT22;57623;53.608;10.004;2022-08-11T16:41:24;31.40;81.70
1578;DHT22;57623;53.608;10.004;2022-08-11T16:44:33;31.40;82.20
1578;DHT22;57623;53.608;10.004;2022-08-11T16:47:43;31.30;81.40
1578;DHT22;57623;53.608;10.004;2022-08-11T16:50:54;31.30;81.90
1578;DHT22;57623;53.608;10.004;2022-08-11T16:53:50;31.30;82.00
1578;DHT22;57623;53.608;10.004;2022-08-11T16:56:55;31.20;82.70
1578;DHT22;57623;53.608;10.004;2022-08-11T17:00:12;31.20;82.00
1578;DHT22;57623;53.608;10.004;2022-08-11T17:03:02;31.00;82.60
1578;DHT22;57623;53.608;10.004;2022-08-11T17:06:11;30.90;82.10
1578;DHT22;57623;53.608;10.004;2022-08-11T17:09:20;30.80;83.20
1578;DHT22;57623;53.608;10.004;2022-08-11T17:12:28;30.50;83.80
1578;DHT22;57623;53.608;10.004;2022-08-11T17:15:40;30.50;84.10
1578;DHT22;57623;53.608;10.004;2022-08-11T17:18:55;30.40;84.80
1578;DHT22;57623;53.608;10.004;2022-08-11T17:21:46;30.20;84.90
1578;DHT22;57623;53.608;10.004;2022-08-11T17:24:49;30.10;85.20
1578;DHT22;57623;53.608;10.004;2022-08-11T17:27:40;29.90;85.60
1578;DHT22;57623;53.608;10.004;2022-08-11T17:30:31;29.80;85.70
1578;DHT22;57623;53.608;10.004;2022-08-11T17:33:36;29.50;84.90
1578;DHT22;57623;53.608;10.004;2022-08-11T17:36:42;29.40;85.00
1578;DHT22;57623;53.608;10.004;2022-08-11T17:39:32;29.20;85.30
1578;DHT22;57623;53.608;10.004;2022-08-11T17:42:22;29.10;87.80
1578;DHT22;57623;53.608;10.004;2022-08-11T17:45:29;28.90;86.50
1578;DHT22;57623;53.608;10.004;2022-08-11T17:48:41;28.90;87.90
1578;DHT22;57623;53.608;10.004;2022-08-11T17:51:35;28.70;86.80
1578;DHT22;57623;53.608;10.004;2022-08-11T17:54:42;28.60;86.20
1578;DHT22;57623;53.608;10.004;2022-08-11T17:57:53;28.50;87.40
1578;DHT22;57623;53.608;10.004;2022-08-11T18:01:00;28.30;87.30
1578;DHT22;57623;53.608;10.004;2022-08-11T18:03:57;28.20;88.30
1578;DHT22;57623;53.608;10.004;2022-08-11T18:06:47;28.10;87.60
1578;DHT22;57623;53.608;10.004;2022-08-11T18:09:36;28.00;89.80
1578;DHT22;57623;53.608;10.004;2022-08-11T18:12:43;28.00;89.70
1578;DHT22;57623;53.608;10.004;2022-08-11T18:15:50;27.90;90.00
1578;DHT22;57623;53.608;10.004;2022-08-11T18:18:58;27.80;90.20
1578;DHT22;57623;53.608;10.004;2022-08-11T18:22:07;27.70;90.60
1578;DHT22;57623;53.608;10.004;2022-08-11T18:25:18;27.50;91.40
1578;DHT22;57623;53.608;10.004;2022-08-11T18:28:36;27.40;90.90
1578;DHT22;57623;53.608;10.004;2022-08-11T18:31:47;27.30;91.30
1578;DHT22;57623;53.608;10.004;2022-08-11T18:34:56;27.10;91.80
1578;DHT22;57623;53.608;10.004;2022-08-11T18:38:08;27.00;91.90
1578;DHT22;57623;53.608;10.004;2022-08-11T18:41:21;26.90;93.00
1578;DHT22;57623;53.608;10.004;2022-08-11T18:44:29;26.80;93.50
1578;DHT22;57623;53.608;10.004;2022-08-11T18:47:36;26.60;93.80
1578;DHT22;57623;53.608;10.004;2022-08-11T18:50:51;26.60;95.30
1578;DHT22;57623;53.608;10.004;2022-08-11T18:54:19;26.30;97.70
1578;DHT22;57623;53.608;10.004;2022-08-11T18:57:26;26.20;98.30
1578;DHT22;57623;53.608;10.004;2022-08-11T19:00:41;26.10;99.40
1578;DHT22;57623;53.608;10.004;2022-08-11T19:03:49;25.90;99.90
1578;DHT22;57623;53.608;10.004;2022-08-11T19:06:59;25.70;99.90
1578;DHT22;57623;53.608;10.004;2022-08-11T19:10:07;25.70;99.90
1578;DHT22;57623;53.608;10.004;2022-08-11T19:13:14;25.50;99.90
1578;DHT22;57623;53.608;10.004;2022-08-11T19:16:23;25.30;99.90
1578;DHT22;57623;53.608;10.004;2022-08-11T19:19:30;25.30;99.90
1578;DHT22;57623;53.608;10.004;2022-08-11T19:22:38;25.10;99.90
1578;DHT22;57623;53.608;10.004;2022-08-11T19:25:46;25.10;99.90
1578;DHT22;57623;53.608;10.004;2022-08-11T19:28:53;24.90;99.90
1578;DHT22;57623;53.608;10.004;2022-08-11T19:32:21;24.80;99.90
1578;DHT22;57623;53.608;10.004;2022-08-11T19:35:40;24.70;99.90
1578;DHT22;57623;53.608;10.004;2022-08-11T19:38:48;24.60;99.90
1578;DHT22;57623;53.608;10.004;2022-08-11T19:41:57;24.50;99.90
1578;DHT22;57623;53.608;10.004;2022-08-11T19:45:05;24.40;99.90
1578;DHT22;57623;53.608;10.004;2022-08-11T19:48:17;24.30;99.90
1578;DHT22;57623;53.608;10.004;2022-08-11T19:51:24;24.20;99.90
1578;DHT22;57623;53.608;10.004;2022-08-11T19:54:37;24.10;99.90
1578;DHT22;57623;53.608;10.004;2022-08-11T19:57:45;24.00;99.90
1578;DHT22;57623;53.608;10.004;2022-08-11T20:00:53;23.90;99.90
1578;DHT22;57623;53.608;10.004;2022-08-11T20:03:59;23.80;99.90
1578;DHT22;57623;53.608;10.004;2022-08-11T20:07:09;23.70;99.90
1578;DHT22;57623;53.608;10.004;2022-08-11T20:10:20;23.60;99.90
1578;DHT22;57623;53.608;10.004;2022-08-11T20:13:33;23.50;99.90
1578;DHT22;57623;53.608;10.004;2022-08-11T20:16:46;23.40;99.90
1578;DHT22;57623;53.608;10.004;2022-08-11T20:19:55;23.30;99.90
1578;DHT22;57623;53.608;10.004;2022-08-11T20:23:03;23.20;99.90
1578;DHT22;57623;53.608;10.004;2022-08-11T20:26:20;23.10;99.90
1578;DHT22;57623;53.608;10.004;2022-08-11T20:29:29;23.00;99.90
1578;DHT22;57623;53.608;10.004;2022-08-11T20:32:38;22.90;99.90
1578;DHT22;57623;53.608;10.004;2022-08-11T20:36:01;22.80;99.90
1578;DHT22;57623;53.608;10.004;2022-08-11T20:39:14;22.70;99.90
1578;DHT22;57623;53.608;10.004;2022-08-11T20:42:26;22.70;99.90